sensor_id;sensor_type;location;lat;lon;timestamp;pressure;altitude;pressure_sealevel;temperature;humidity
66857;BME280;53766;50.280;19.160;2024-03-22T00:02:14;98700.59;;;17.42;46.57
66857;BME280;53766;50.280;19.160;2024-03-22T00:04:40;98688.94;;;17.43;46.49
66857;BME280;53766;50.280;19.160;2024-03-22T00:07:07;98691.78;;;17.41;46.51
66857;BME280;53766;50.280;19.160;2024-03-22T00:09:34;98691.63;;;17.43;46.56
66857;BME280;53766;50.280;19.160;2024-03-22T00:12:01;98696.31;;;17.41;46.53
66857;BME280;53766;50.280;19.160;2024-03-22T00:14:28;98688.94;;;17.43;46.41
66857;BME280;53766;50.280;19.160;2024-03-22T00:16:54;98695.28;;;17.42;46.59
66857;BME280;53766;50.280;19.160;2024-03-22T00:19:21;98696.13;;;17.42;46.55
66857;BME280;53766;50.280;19.160;2024-03-22T00:21:47;98691.63;;;17.43;46.56
66857;BME280;53766;50.280;19.160;2024-03-22T00:24:14;98688.31;;;17.41;46.55
66857;BME280;53766;50.280;19.160;2024-03-22T00:26:40;98695.28;;;17.42;46.71
66857;BME280;53766;50.280;19.160;2024-03-22T00:29:07;98688.31;;;17.41;46.71
66857;BME280;53766;50.280;19.160;2024-03-22T00:31:33;98688.31;;;17.41;46.61
66857;BME280;53766;50.280;19.160;2024-03-22T00:34:00;98688.31;;;17.41;46.67
66857;BME280;53766;50.280;19.160;2024-03-22T00:36:26;98685.66;;;17.41;46.77
66857;BME280;53766;50.280;19.160;2024-03-22T00:38:53;98689.13;;;17.41;46.66
66857;BME280;53766;50.280;19.160;2024-03-22T00:41:19;98683.81;;;17.41;46.65
66857;BME280;53766;50.280;19.160;2024-03-22T00:43:46;98689.13;;;17.41;46.66
66857;BME280;53766;50.280;19.160;2024-03-22T00:46:13;98688.31;;;17.41;46.80
66857;BME280;53766;50.280;19.160;2024-03-22T00:48:39;98693.47;;;17.42;46.76
66857;BME280;53766;50.280;19.160;2024-03-22T00:51:06;98689.13;;;17.41;46.72
66857;BME280;53766;50.280;19.160;2024-03-22T00:53:33;98688.13;;;17.42;46.87
66857;BME280;53766;50.280;19.160;2024-03-22T00:56:00;98689.13;;;17.41;46.80
66857;BME280;53766;50.280;19.160;2024-03-22T00:58:27;98690.97;;;17.41;46.80
66857;BME280;53766;50.280;19.160;2024-03-22T01:00:54;98682.19;;;17.40;46.82
66857;BME280;53766;50.280;19.160;2024-03-22T01:03:21;98678.47;;;17.41;46.85
66857;BME280;53766;50.280;19.160;2024-03-22T01:05:48;98681.16;;;17.41;46.81
66857;BME280;53766;50.280;19.160;2024-03-22T01:08:14;98677.66;;;17.41;46.81
66857;BME280;53766;50.280;19.160;2024-03-22T01:10:41;98676.03;;;17.40;46.84
66857;BME280;53766;50.280;19.160;2024-03-22T01:13:08;98677.66;;;17.41;46.67
66857;BME280;53766;50.280;19.160;2024-03-22T01:15:35;98676.84;;;17.40;46.87
66857;BME280;53766;50.280;19.160;2024-03-22T01:18:01;98677.66;;;17.41;46.96
66857;BME280;53766;50.280;19.160;2024-03-22T01:20:28;98676.84;;;17.40;46.81
66857;BME280;53766;50.280;19.160;2024-03-22T01:22:55;98678.47;;;17.41;46.75
66857;BME280;53766;50.280;19.160;2024-03-22T01:25:22;98676.63;;;17.42;46.75
66857;BME280;53766;50.280;19.160;2024-03-22T01:27:48;98677.66;;;17.41;46.91
66857;BME280;53766;50.280;19.160;2024-03-22T01:30:15;98681.34;;;17.40;46.97
66857;BME280;53766;50.280;19.160;2024-03-22T01:32:41;98678.47;;;17.41;46.92
66857;BME280;53766;50.280;19.160;2024-03-22T01:35:08;98671.53;;;17.40;46.88
66857;BME280;53766;50.280;19.160;2024-03-22T01:37:34;98671.53;;;17.40;46.97
66857;BME280;53766;50.280;19.160;2024-03-22T01:40:01;98677.66;;;17.41;46.91
66857;BME280;53766;50.280;19.160;2024-03-22T01:42:27;98675.00;;;17.41;46.88
66857;BME280;53766;50.280;19.160;2024-03-22T01:44:54;98686.69;;;17.40;47.00
66857;BME280;53766;50.280;19.160;2024-03-22T01:47:21;98683.00;;;17.41;47.00
66857;BME280;53766;50.280;19.160;2024-03-22T01:49:49;98682.19;;;17.40;46.92
66857;BME280;53766;50.280;19.160;2024-03-22T01:52:17;98681.34;;;17.40;46.93
66857;BME280;53766;50.280;19.160;2024-03-22T01:54:43;98681.34;;;17.40;46.95
66857;BME280;53766;50.280;19.160;2024-03-22T01:57:10;98684.03;;;17.40;46.99
66857;BME280;53766;50.280;19.160;2024-03-22T01:59:37;98687.69;;;17.39;47.09
66857;BME280;53766;50.280;19.160;2024-03-22T02:02:05;98689.34;;;17.40;47.09
66857;BME280;53766;50.280;19.160;2024-03-22T02:04:32;98692.00;;;17.40;47.05
66857;BME280;53766;50.280;19.160;2024-03-22T02:06:58;98702.66;;;17.40;46.98
66857;BME280;53766;50.280;19.160;2024-03-22T02:09:25;98694.66;;;17.40;46.89
66857;BME280;53766;50.280;19.160;2024-03-22T02:11:51;98693.81;;;17.39;46.95
66857;BME280;53766;50.280;19.160;2024-03-22T02:14:18;98694.66;;;17.40;47.07
66857;BME280;53766;50.280;19.160;2024-03-22T02:16:44;98694.66;;;17.40;47.07
66857;BME280;53766;50.280;19.160;2024-03-22T02:19:11;98692.00;;;17.40;47.06
66857;BME280;53766;50.280;19.160;2024-03-22T02:21:38;98692.00;;;17.40;46.97
66857;BME280;53766;50.280;19.160;2024-03-22T02:24:05;98690.34;;;17.39;47.02
66857;BME280;53766;50.280;19.160;2024-03-22T02:26:31;98686.69;;;17.40;47.05
66857;BME280;53766;50.280;19.160;2024-03-22T02:28:58;98690.34;;;17.39;47.08
66857;BME280;53766;50.280;19.160;2024-03-22T02:31:25;98686.69;;;17.40;47.02
66857;BME280;53766;50.280;19.160;2024-03-22T02:33:53;98683.19;;;17.39;47.07
66857;BME280;53766;50.280;19.160;2024-03-22T02:36:19;98685.03;;;17.39;47.08
66857;BME280;53766;50.280;19.160;2024-03-22T02:38:46;98681.53;;;17.38;47.13
66857;BME280;53766;50.280;19.160;2024-03-22T02:41:12;98679.69;;;17.39;47.18
66857;BME280;53766;50.280;19.160;2024-03-22T02:43:39;98674.38;;;17.39;47.15
66857;BME280;53766;50.280;19.160;2024-03-22T02:46:05;98679.69;;;17.39;47.15
66857;BME280;53766;50.280;19.160;2024-03-22T02:48:32;98685.03;;;17.39;47.07
66857;BME280;53766;50.280;19.160;2024-03-22T02:50:58;98679.69;;;17.39;47.14
66857;BME280;53766;50.280;19.160;2024-03-22T02:53:25;98685.03;;;17.39;47.21
66857;BME280;53766;50.280;19.160;2024-03-22T02:55:51;98677.03;;;17.39;47.20
66857;BME280;53766;50.280;19.160;2024-03-22T02:58:20;98677.03;;;17.39;47.29
66857;BME280;53766;50.280;19.160;2024-03-22T03:00:46;98668.22;;;17.38;47.24
66857;BME280;53766;50.280;19.160;2024-03-22T03:03:13;98670.88;;;17.38;47.35
66857;BME280;53766;50.280;19.160;2024-03-22T03:05:40;98667.41;;;17.38;47.17
66857;BME280;53766;50.280;19.160;2024-03-22T03:08:07;98676.22;;;17.38;47.22
66857;BME280;53766;50.280;19.160;2024-03-22T03:10:34;98677.03;;;17.39;47.31
66857;BME280;53766;50.280;19.160;2024-03-22T03:13:01;98674.38;;;17.39;47.36
66857;BME280;53766;50.280;19.160;2024-03-22T03:15:29;98676.22;;;17.38;47.33
66857;BME280;53766;50.280;19.160;2024-03-22T03:17:55;98670.06;;;17.38;47.17
66857;BME280;53766;50.280;19.160;2024-03-22T03:20:22;98675.59;;;17.36;47.26
66857;BME280;53766;50.280;19.160;2024-03-22T03:22:48;98670.06;;;17.38;47.33
66857;BME280;53766;50.280;19.160;2024-03-22T03:25:15;98671.88;;;17.37;47.15
66857;BME280;53766;50.280;19.160;2024-03-22T03:27:41;98662.09;;;17.38;47.24
66857;BME280;53766;50.280;19.160;2024-03-22T03:30:08;98662.09;;;17.38;47.34
66857;BME280;53766;50.280;19.160;2024-03-22T03:32:35;98662.09;;;17.38;47.30
66857;BME280;53766;50.280;19.160;2024-03-22T03:35:01;98667.41;;;17.38;47.17
66857;BME280;53766;50.280;19.160;2024-03-22T03:37:28;98670.06;;;17.38;47.37
66857;BME280;53766;50.280;19.160;2024-03-22T03:39:54;98665.75;;;17.37;47.27
66857;BME280;53766;50.280;19.160;2024-03-22T03:42:22;98659.44;;;17.38;47.32
66857;BME280;53766;50.280;19.160;2024-03-22T03:44:48;98658.41;;;17.39;47.21
66857;BME280;53766;50.280;19.160;2024-03-22T03:47:15;98654.09;;;17.38;47.21
66857;BME280;53766;50.280;19.160;2024-03-22T03:49:41;98654.09;;;17.38;47.30
66857;BME280;53766;50.280;19.160;2024-03-22T03:52:08;98650.59;;;17.37;47.38
66857;BME280;53766;50.280;19.160;2024-03-22T03:54:34;98648.78;;;17.38;47.39
66857;BME280;53766;50.280;19.160;2024-03-22T03:57:01;98650.59;;;17.37;47.35
66857;BME280;53766;50.280;19.160;2024-03-22T03:59:28;98649.78;;;17.37;47.56
66857;BME280;53766;50.280;19.160;2024-03-22T04:01:55;98644.44;;;17.37;47.29
66857;BME280;53766;50.280;19.160;2024-03-22T04:04:21;98644.44;;;17.37;47.33
66857;BME280;53766;50.280;19.160;2024-03-22T04:06:48;98643.44;;;17.38;47.45
66857;BME280;53766;50.280;19.160;2024-03-22T04:09:14;98649.78;;;17.37;47.42
66857;BME280;53766;50.280;19.160;2024-03-22T04:11:41;98649.78;;;17.37;47.41
66857;BME280;53766;50.280;19.160;2024-03-22T04:14:07;98644.44;;;17.37;47.26
66857;BME280;53766;50.280;19.160;2024-03-22T04:16:34;98645.25;;;17.37;47.34
66857;BME280;53766;50.280;19.160;2024-03-22T04:19:00;98644.44;;;17.37;47.43
66857;BME280;53766;50.280;19.160;2024-03-22T04:21:27;98645.47;;;17.36;47.50
66857;BME280;53766;50.280;19.160;2024-03-22T04:23:53;98642.81;;;17.36;47.53
66857;BME280;53766;50.280;19.160;2024-03-22T04:26:20;98639.13;;;17.37;47.43
66857;BME280;53766;50.280;19.160;2024-03-22T04:28:47;98639.13;;;17.37;47.46
66857;BME280;53766;50.280;19.160;2024-03-22T04:31:13;98642.81;;;17.36;47.56
66857;BME280;53766;50.280;19.160;2024-03-22T04:33:40;98640.78;;;17.38;47.43
66857;BME280;53766;50.280;19.160;2024-03-22T04:36:06;98655.09;;;17.37;47.60
66857;BME280;53766;50.280;19.160;2024-03-22T04:38:35;98648.16;;;17.36;47.41
66857;BME280;53766;50.280;19.160;2024-03-22T04:41:02;98650.81;;;17.36;47.70
66857;BME280;53766;50.280;19.160;2024-03-22T04:43:28;98648.16;;;17.36;47.66
66857;BME280;53766;50.280;19.160;2024-03-22T04:45:55;98657.13;;;17.35;47.52
66857;BME280;53766;50.280;19.160;2024-03-22T04:48:22;98654.28;;;17.36;47.52
66857;BME280;53766;50.280;19.160;2024-03-22T04:50:50;98653.47;;;17.36;47.66
66857;BME280;53766;50.280;19.160;2024-03-22T04:53:18;98642.19;;;17.34;47.47
66857;BME280;53766;50.280;19.160;2024-03-22T04:55:44;98652.63;;;17.35;47.55
66857;BME280;53766;50.280;19.160;2024-03-22T04:58:15;98651.81;;;17.35;47.63
66857;BME280;53766;50.280;19.160;2024-03-22T05:00:43;98667.78;;;17.35;47.61
66857;BME280;53766;50.280;19.160;2024-03-22T05:03:09;98670.44;;;17.35;47.57
66857;BME280;53766;50.280;19.160;2024-03-22T05:05:38;98664.13;;;17.36;47.66
66857;BME280;53766;50.280;19.160;2024-03-22T05:08:06;98663.28;;;17.35;47.76
66857;BME280;53766;50.280;19.160;2024-03-22T05:10:33;98665.75;;;17.37;47.78
66857;BME280;53766;50.280;19.160;2024-03-22T05:13:00;98667.78;;;17.35;47.77
66857;BME280;53766;50.280;19.160;2024-03-22T05:15:26;98664.13;;;17.36;47.93
66857;BME280;53766;50.280;19.160;2024-03-22T05:17:56;98669.44;;;17.36;48.02
66857;BME280;53766;50.280;19.160;2024-03-22T05:20:23;98668.59;;;17.35;48.06
66857;BME280;53766;50.280;19.160;2024-03-22T05:22:49;98664.13;;;17.36;48.25
66857;BME280;53766;50.280;19.160;2024-03-22T05:25:16;98668.41;;;17.37;48.29
66857;BME280;53766;50.280;19.160;2024-03-22T05:27:44;98677.22;;;17.37;48.45
66857;BME280;53766;50.280;19.160;2024-03-22T05:30:12;98678.06;;;17.38;48.40
66857;BME280;53766;50.280;19.160;2024-03-22T05:32:40;98682.53;;;17.37;48.33
66857;BME280;53766;50.280;19.160;2024-03-22T05:35:08;98681.72;;;17.37;48.44
66857;BME280;53766;50.280;19.160;2024-03-22T05:37:35;98680.91;;;17.36;48.58
66857;BME280;53766;50.280;19.160;2024-03-22T05:40:02;98681.72;;;17.37;48.60
66857;BME280;53766;50.280;19.160;2024-03-22T05:42:31;98677.22;;;17.37;48.69
66857;BME280;53766;50.280;19.160;2024-03-22T05:44:57;98678.06;;;17.38;48.72
66857;BME280;53766;50.280;19.160;2024-03-22T05:47:24;98677.22;;;17.37;48.67
66857;BME280;53766;50.280;19.160;2024-03-22T05:49:50;98678.06;;;17.38;48.88
66857;BME280;53766;50.280;19.160;2024-03-22T05:52:18;98671.88;;;17.37;48.68
66857;BME280;53766;50.280;19.160;2024-03-22T05:54:44;98670.25;;;17.36;48.84
66857;BME280;53766;50.280;19.160;2024-03-22T05:57:11;98669.63;;;17.34;48.71
66857;BME280;53766;50.280;19.160;2024-03-22T05:59:38;98664.47;;;17.33;48.64
66857;BME280;53766;50.280;19.160;2024-03-22T06:02:05;98677.16;;;17.31;48.69
66857;BME280;53766;50.280;19.160;2024-03-22T06:04:32;98670.19;;;17.30;48.67
66857;BME280;53766;50.280;19.160;2024-03-22T06:07:00;98663.22;;;17.28;48.32
66857;BME280;53766;50.280;19.160;2024-03-22T06:09:26;98668.94;;;17.25;48.62
66857;BME280;53766;50.280;19.160;2024-03-22T06:12:25;98673.44;;;17.25;48.46
66857;BME280;53766;50.280;19.160;2024-03-22T06:14:52;98672.00;;;17.22;48.51
66857;BME280;53766;50.280;19.160;2024-03-22T06:17:18;98672.97;;;17.21;48.46
66857;BME280;53766;50.280;19.160;2024-03-22T06:19:45;98670.50;;;17.20;48.44
66857;BME280;53766;50.280;19.160;2024-03-22T06:22:12;98668.88;;;17.19;48.44
66857;BME280;53766;50.280;19.160;2024-03-22T06:24:38;98670.91;;;17.17;48.51
66857;BME280;53766;50.280;19.160;2024-03-22T06:27:05;98676.22;;;17.17;48.32
66857;BME280;53766;50.280;19.160;2024-03-22T06:29:31;98673.75;;;17.15;48.30
66857;BME280;53766;50.280;19.160;2024-03-22T06:31:58;98671.06;;;17.15;48.16
66857;BME280;53766;50.280;19.160;2024-03-22T06:34:24;98678.25;;;17.15;48.01
66857;BME280;53766;50.280;19.160;2024-03-22T06:36:51;98680.72;;;17.16;47.93
66857;BME280;53766;50.280;19.160;2024-03-22T06:39:18;98675.41;;;17.16;47.92
66857;BME280;53766;50.280;19.160;2024-03-22T06:41:46;98675.41;;;17.16;47.76
66857;BME280;53766;50.280;19.160;2024-03-22T06:44:12;98672.53;;;17.18;47.85
66857;BME280;53766;50.280;19.160;2024-03-22T06:46:40;98674.19;;;17.19;47.83
66857;BME280;53766;50.280;19.160;2024-03-22T06:49:06;98675.00;;;17.19;47.80
66857;BME280;53766;50.280;19.160;2024-03-22T06:51:33;98684.66;;;17.20;47.84
66857;BME280;53766;50.280;19.160;2024-03-22T06:54:00;98676.69;;;17.20;47.77
66857;BME280;53766;50.280;19.160;2024-03-22T06:56:26;98670.31;;;17.21;47.74
66857;BME280;53766;50.280;19.160;2024-03-22T06:58:53;98679.34;;;17.20;47.70
66857;BME280;53766;50.280;19.160;2024-03-22T07:01:20;98678.31;;;17.21;47.63
66857;BME280;53766;50.280;19.160;2024-03-22T07:03:47;98670.31;;;17.21;47.52
66857;BME280;53766;50.280;19.160;2024-03-22T07:06:14;98679.13;;;17.22;47.68
66857;BME280;53766;50.280;19.160;2024-03-22T07:08:41;98674.66;;;17.22;47.66
66857;BME280;53766;50.280;19.160;2024-03-22T07:11:07;98669.31;;;17.22;47.56
66857;BME280;53766;50.280;19.160;2024-03-22T07:13:35;98675.47;;;17.23;47.53
66857;BME280;53766;50.280;19.160;2024-03-22T07:16:03;98669.13;;;17.24;47.54
66857;BME280;53766;50.280;19.160;2024-03-22T07:18:29;98672.81;;;17.23;47.78
66857;BME280;53766;50.280;19.160;2024-03-22T07:20:57;98669.94;;;17.24;47.57
66857;BME280;53766;50.280;19.160;2024-03-22T07:23:27;98668.13;;;17.25;47.63
66857;BME280;53766;50.280;19.160;2024-03-22T07:25:54;98661.94;;;17.24;47.53
66857;BME280;53766;50.280;19.160;2024-03-22T07:28:21;98661.13;;;17.24;47.65
66857;BME280;53766;50.280;19.160;2024-03-22T07:30:47;98658.28;;;17.25;47.63
66857;BME280;53766;50.280;19.160;2024-03-22T07:33:14;98658.28;;;17.25;47.56
66857;BME280;53766;50.280;19.160;2024-03-22T07:35:43;98658.28;;;17.25;47.55
66857;BME280;53766;50.280;19.160;2024-03-22T07:38:10;98665.25;;;17.26;47.64
66857;BME280;53766;50.280;19.160;2024-03-22T07:40:37;98662.56;;;17.26;47.55
66857;BME280;53766;50.280;19.160;2024-03-22T07:43:03;98665.25;;;17.26;47.70
66857;BME280;53766;50.280;19.160;2024-03-22T07:45:34;98659.91;;;17.26;47.83
66857;BME280;53766;50.280;19.160;2024-03-22T07:48:01;98663.22;;;17.28;47.57
66857;BME280;53766;50.280;19.160;2024-03-22T07:50:28;98662.22;;;17.30;47.56
66857;BME280;53766;50.280;19.160;2024-03-22T07:52:54;98658.09;;;17.27;47.55
66857;BME280;53766;50.280;19.160;2024-03-22T07:55:22;98664.25;;;17.27;47.65
66857;BME280;53766;50.280;19.160;2024-03-22T07:57:49;98652.56;;;17.28;47.62
66857;BME280;53766;50.280;19.160;2024-03-22T08:00:16;98654.22;;;17.30;47.65
66857;BME280;53766;50.280;19.160;2024-03-22T08:02:42;98649.53;;;17.32;47.80
66857;BME280;53766;50.280;19.160;2024-03-22T08:05:10;98650.53;;;17.31;47.56
66857;BME280;53766;50.280;19.160;2024-03-22T08:07:36;98643.41;;;17.31;47.58
66857;BME280;53766;50.280;19.160;2024-03-22T08:10:04;98646.88;;;17.32;47.54
66857;BME280;53766;50.280;19.160;2024-03-22T08:12:30;98650.53;;;17.31;47.59
66857;BME280;53766;50.280;19.160;2024-03-22T08:14:57;98654.84;;;17.32;47.60
66857;BME280;53766;50.280;19.160;2024-03-22T08:17:23;98647.69;;;17.32;47.57
66857;BME280;53766;50.280;19.160;2024-03-22T08:19:50;98653.84;;;17.33;47.57
66857;BME280;53766;50.280;19.160;2024-03-22T08:22:17;98651.38;;;17.31;47.67
66857;BME280;53766;50.280;19.160;2024-03-22T08:24:44;98658.34;;;17.32;47.50
66857;BME280;53766;50.280;19.160;2024-03-22T08:27:10;98651.38;;;17.31;47.33
66857;BME280;53766;50.280;19.160;2024-03-22T08:29:37;98655.84;;;17.31;47.31
66857;BME280;53766;50.280;19.160;2024-03-22T08:32:04;98663.84;;;17.31;47.12
66857;BME280;53766;50.280;19.160;2024-03-22T08:34:31;98662.22;;;17.30;47.20
66857;BME280;53766;50.280;19.160;2024-03-22T08:37:00;98664.06;;;17.29;46.93
66857;BME280;53766;50.280;19.160;2024-03-22T08:39:27;98664.06;;;17.29;46.88
66857;BME280;53766;50.280;19.160;2024-03-22T08:41:54;98656.25;;;17.27;46.99
66857;BME280;53766;50.280;19.160;2024-03-22T08:44:21;98663.22;;;17.28;46.80
66857;BME280;53766;50.280;19.160;2024-03-22T08:46:47;98651.94;;;17.26;46.91
66857;BME280;53766;50.280;19.160;2024-03-22T08:49:15;98663.22;;;17.28;46.68
66857;BME280;53766;50.280;19.160;2024-03-22T08:51:41;98661.56;;;17.27;46.59
66857;BME280;53766;50.280;19.160;2024-03-22T08:54:08;98656.25;;;17.27;46.51
66857;BME280;53766;50.280;19.160;2024-03-22T08:56:34;98660.56;;;17.28;46.73
66857;BME280;53766;50.280;19.160;2024-03-22T08:59:01;98655.22;;;17.28;46.71
66857;BME280;53766;50.280;19.160;2024-03-22T09:01:27;98659.56;;;17.30;46.61
66857;BME280;53766;50.280;19.160;2024-03-22T09:03:53;98662.22;;;17.30;46.68
66857;BME280;53766;50.280;19.160;2024-03-22T09:06:20;98660.38;;;17.30;46.67
66857;BME280;53766;50.280;19.160;2024-03-22T09:08:46;98659.38;;;17.31;46.66
66857;BME280;53766;50.280;19.160;2024-03-22T09:11:13;98661.19;;;17.31;46.75
66857;BME280;53766;50.280;19.160;2024-03-22T09:13:40;98664.69;;;17.31;46.72
66857;BME280;53766;50.280;19.160;2024-03-22T09:16:06;98652.19;;;17.32;46.74
66857;BME280;53766;50.280;19.160;2024-03-22T09:18:32;98655.69;;;17.32;46.74
66857;BME280;53766;50.280;19.160;2024-03-22T09:20:59;98646.88;;;17.32;46.84
66857;BME280;53766;50.280;19.160;2024-03-22T09:23:26;98653.84;;;17.33;46.94
66857;BME280;53766;50.280;19.160;2024-03-22T09:25:53;98643.19;;;17.33;46.90
66857;BME280;53766;50.280;19.160;2024-03-22T09:28:19;98644.84;;;17.34;46.83
66857;BME280;53766;50.280;19.160;2024-03-22T09:30:45;98643.19;;;17.33;46.95
66857;BME280;53766;50.280;19.160;2024-03-22T09:33:14;98644.84;;;17.34;46.86
66857;BME280;53766;50.280;19.160;2024-03-22T09:35:41;98637.69;;;17.34;47.07
66857;BME280;53766;50.280;19.160;2024-03-22T09:38:07;98630.50;;;17.35;46.91
66857;BME280;53766;50.280;19.160;2024-03-22T09:40:34;98630.13;;;17.38;46.83
66857;BME280;53766;50.280;19.160;2024-03-22T09:43:02;98630.97;;;17.38;46.97
66857;BME280;53766;50.280;19.160;2024-03-22T09:45:31;98632.59;;;17.39;46.89
66857;BME280;53766;50.280;19.160;2024-03-22T09:47:58;98630.13;;;17.38;46.79
66857;BME280;53766;50.280;19.160;2024-03-22T09:50:26;98628.09;;;17.40;46.85
66857;BME280;53766;50.280;19.160;2024-03-22T09:52:53;98625.44;;;17.40;46.76
66857;BME280;53766;50.280;19.160;2024-03-22T09:55:22;98617.47;;;17.40;46.79
66857;BME280;53766;50.280;19.160;2024-03-22T09:57:50;98619.09;;;17.41;46.84
66857;BME280;53766;50.280;19.160;2024-03-22T10:00:19;98616.44;;;17.41;46.96
66857;BME280;53766;50.280;19.160;2024-03-22T10:02:51;98622.38;;;17.43;46.81
66857;BME280;53766;50.280;19.160;2024-03-22T10:05:19;98622.38;;;17.43;46.89
66857;BME280;53766;50.280;19.160;2024-03-22T10:07:47;98614.22;;;17.44;46.96
66857;BME280;53766;50.280;19.160;2024-03-22T10:10:13;98613.00;;;17.47;46.79
66857;BME280;53766;50.280;19.160;2024-03-22T10:12:42;98615.66;;;17.47;46.72
66857;BME280;53766;50.280;19.160;2024-03-22T10:15:09;98616.28;;;17.49;46.74
66857;BME280;53766;50.280;19.160;2024-03-22T10:17:36;98610.97;;;17.49;46.83
66857;BME280;53766;50.280;19.160;2024-03-22T10:20:04;98605.66;;;17.49;46.76
66857;BME280;53766;50.280;19.160;2024-03-22T10:22:30;98606.28;;;17.51;46.80
66857;BME280;53766;50.280;19.160;2024-03-22T10:24:57;98605.25;;;17.52;46.80
66857;BME280;53766;50.280;19.160;2024-03-22T10:27:27;98596.25;;;17.53;46.55
66857;BME280;53766;50.280;19.160;2024-03-22T10:29:55;98589.25;;;17.52;46.75
66857;BME280;53766;50.280;19.160;2024-03-22T10:32:24;98597.06;;;17.54;46.91
66857;BME280;53766;50.280;19.160;2024-03-22T10:34:50;98586.41;;;17.54;46.84
66857;BME280;53766;50.280;19.160;2024-03-22T10:37:17;98588.91;;;17.55;46.81
66857;BME280;53766;50.280;19.160;2024-03-22T10:39:46;98580.91;;;17.55;46.94
66857;BME280;53766;50.280;19.160;2024-03-22T10:42:14;98575.38;;;17.57;46.76
66857;BME280;53766;50.280;19.160;2024-03-22T10:44:42;98572.50;;;17.58;46.79
66857;BME280;53766;50.280;19.160;2024-03-22T10:47:09;98568.81;;;17.59;46.84
66857;BME280;53766;50.280;19.160;2024-03-22T10:49:38;98565.16;;;17.60;46.85
66857;BME280;53766;50.280;19.160;2024-03-22T10:52:07;98561.47;;;17.61;46.73
66857;BME280;53766;50.280;19.160;2024-03-22T10:54:39;98558.16;;;17.59;46.92
66857;BME280;53766;50.280;19.160;2024-03-22T10:57:11;98561.47;;;17.61;46.91
66857;BME280;53766;50.280;19.160;2024-03-22T10:59:41;98559.81;;;17.60;46.83
66857;BME280;53766;50.280;19.160;2024-03-22T11:02:10;98550.81;;;17.61;46.84
66857;BME280;53766;50.280;19.160;2024-03-22T11:04:37;98542.81;;;17.61;46.85
66857;BME280;53766;50.280;19.160;2024-03-22T11:07:04;98545.47;;;17.61;46.98
66857;BME280;53766;50.280;19.160;2024-03-22T11:09:31;98540.38;;;17.60;46.85
66857;BME280;53766;50.280;19.160;2024-03-22T11:11:58;98539.16;;;17.62;46.94
66857;BME280;53766;50.280;19.160;2024-03-22T11:14:26;98534.81;;;17.61;46.95
66857;BME280;53766;50.280;19.160;2024-03-22T11:16:53;98532.78;;;17.63;46.82
66857;BME280;53766;50.280;19.160;2024-03-22T11:19:19;98525.84;;;17.62;46.87
66857;BME280;53766;50.280;19.160;2024-03-22T11:21:46;98529.13;;;17.64;47.00
66857;BME280;53766;50.280;19.160;2024-03-22T11:24:12;98530.13;;;17.63;46.84
66857;BME280;53766;50.280;19.160;2024-03-22T11:26:39;98523.78;;;17.64;46.83
66857;BME280;53766;50.280;19.160;2024-03-22T11:29:05;98529.13;;;17.64;46.82
66857;BME280;53766;50.280;19.160;2024-03-22T11:31:32;98522.13;;;17.63;46.83
66857;BME280;53766;50.280;19.160;2024-03-22T11:33:59;98519.47;;;17.63;46.80
66857;BME280;53766;50.280;19.160;2024-03-22T11:36:26;98516.81;;;17.63;46.80
66857;BME280;53766;50.280;19.160;2024-03-22T11:38:53;98507.81;;;17.64;46.92
66857;BME280;53766;50.280;19.160;2024-03-22T11:41:25;98507.81;;;17.64;46.99
66857;BME280;53766;50.280;19.160;2024-03-22T11:43:54;98509.44;;;17.65;46.82
66857;BME280;53766;50.280;19.160;2024-03-22T11:46:22;98497.97;;;17.65;46.91
66857;BME280;53766;50.280;19.160;2024-03-22T11:48:52;98499.81;;;17.64;46.94
66857;BME280;53766;50.280;19.160;2024-03-22T11:51:20;98490.00;;;17.65;46.78
66857;BME280;53766;50.280;19.160;2024-03-22T11:53:53;98498.78;;;17.65;46.82
66857;BME280;53766;50.280;19.160;2024-03-22T11:56:22;98496.75;;;17.67;46.84
66857;BME280;53766;50.280;19.160;2024-03-22T11:58:49;98498.78;;;17.65;46.88
66857;BME280;53766;50.280;19.160;2024-03-22T12:01:16;98497.78;;;17.66;46.99
66857;BME280;53766;50.280;19.160;2024-03-22T12:03:47;98486.31;;;17.66;46.98
66857;BME280;53766;50.280;19.160;2024-03-22T12:06:15;98488.97;;;17.66;46.90
66857;BME280;53766;50.280;19.160;2024-03-22T12:08:41;98489.81;;;17.66;46.80
66857;BME280;53766;50.280;19.160;2024-03-22T12:11:08;98489.81;;;17.66;46.93
66857;BME280;53766;50.280;19.160;2024-03-22T12:13:35;98485.28;;;17.67;46.89
66857;BME280;53766;50.280;19.160;2024-03-22T12:16:03;98487.13;;;17.66;46.79
66857;BME280;53766;50.280;19.160;2024-03-22T12:18:30;98479.78;;;17.68;46.81
66857;BME280;53766;50.280;19.160;2024-03-22T12:20:57;98482.44;;;17.68;46.89
66857;BME280;53766;50.280;19.160;2024-03-22T12:23:23;98481.59;;;17.68;46.77
66857;BME280;53766;50.280;19.160;2024-03-22T12:25:51;98477.09;;;17.68;47.04
66857;BME280;53766;50.280;19.160;2024-03-22T12:28:18;98474.22;;;17.70;46.97
66857;BME280;53766;50.280;19.160;2024-03-22T12:30:48;98468.09;;;17.69;46.87
66857;BME280;53766;50.280;19.160;2024-03-22T12:33:14;98469.75;;;17.71;46.86
66857;BME280;53766;50.280;19.160;2024-03-22T12:35:41;98461.75;;;17.71;46.84
66857;BME280;53766;50.280;19.160;2024-03-22T12:38:08;98455.38;;;17.72;46.85
66857;BME280;53766;50.280;19.160;2024-03-22T12:40:40;98450.69;;;17.74;46.71
66857;BME280;53766;50.280;19.160;2024-03-22T12:43:09;98448.03;;;17.74;46.76
66857;BME280;53766;50.280;19.160;2024-03-22T12:45:36;98446.41;;;17.73;46.77
66857;BME280;53766;50.280;19.160;2024-03-22T12:48:02;98440.03;;;17.74;46.81
66857;BME280;53766;50.280;19.160;2024-03-22T12:50:30;98440.03;;;17.74;46.91